sensor_id;sensor_type;location;lat;lon;timestamp;temperature;humidity
14142;DHT22;7151;52.246;4.820;2023-10-31T00:00:13;15.30;93.30
14142;DHT22;7151;52.246;4.820;2023-10-31T00:02:39;15.30;93.30
14142;DHT22;7151;52.246;4.820;2023-10-31T00:05:05;15.30;93.30
14142;DHT22;7151;52.246;4.820;2023-10-31T00:07:33;15.30;93.30
14142;DHT22;7151;52.246;4.820;2023-10-31T00:09:58;15.30;93.30
14142;DHT22;7151;52.246;4.820;2023-10-31T00:12:24;15.30;93.30
14142;DHT22;7151;52.246;4.820;2023-10-31T00:14:49;15.30;93.30
14142;DHT22;7151;52.246;4.820;2023-10-31T00:17:15;15.30;93.30
14142;DHT22;7151;52.246;4.820;2023-10-31T00:19:40;15.30;93.40
14142;DHT22;7151;52.246;4.820;2023-10-31T00:22:06;15.30;93.40
14142;DHT22;7151;52.246;4.820;2023-10-31T00:24:31;15.30;93.40
14142;DHT22;7151;52.246;4.820;2023-10-31T00:26:58;15.30;93.40
14142;DHT22;7151;52.246;4.820;2023-10-31T00:29:23;15.30;93.40
14142;DHT22;7151;52.246;4.820;2023-10-31T00:31:49;15.30;93.40
14142;DHT22;7151;52.246;4.820;2023-10-31T00:34:15;15.30;93.50
14142;DHT22;7151;52.246;4.820;2023-10-31T00:36:40;15.30;93.50
14142;DHT22;7151;52.246;4.820;2023-10-31T00:39:06;15.30;93.50
14142;DHT22;7151;52.246;4.820;2023-10-31T00:41:32;15.30;93.40
14142;DHT22;7151;52.246;4.820;2023-10-31T00:43:57;15.30;93.40
14142;DHT22;7151;52.246;4.820;2023-10-31T00:46:23;15.30;93.50
14142;DHT22;7151;52.246;4.820;2023-10-31T00:48:48;15.30;93.50
14142;DHT22;7151;52.246;4.820;2023-10-31T00:51:14;15.30;93.50
14142;DHT22;7151;52.246;4.820;2023-10-31T00:53:39;15.30;93.50
14142;DHT22;7151;52.246;4.820;2023-10-31T00:56:05;15.30;93.40
14142;DHT22;7151;52.246;4.820;2023-10-31T00:58:31;15.20;93.40
14142;DHT22;7151;52.246;4.820;2023-10-31T01:00:57;15.20;93.30
14142;DHT22;7151;52.246;4.820;2023-10-31T01:03:22;15.20;93.30
14142;DHT22;7151;52.246;4.820;2023-10-31T01:05:48;15.20;93.30
14142;DHT22;7151;52.246;4.820;2023-10-31T01:08:14;15.20;93.30
14142;DHT22;7151;52.246;4.820;2023-10-31T01:10:40;15.10;93.30
14142;DHT22;7151;52.246;4.820;2023-10-31T01:13:05;15.10;93.30
14142;DHT22;7151;52.246;4.820;2023-10-31T01:15:31;15.10;93.30
14142;DHT22;7151;52.246;4.820;2023-10-31T01:17:56;15.10;93.30
14142;DHT22;7151;52.246;4.820;2023-10-31T01:20:22;15.00;93.30
14142;DHT22;7151;52.246;4.820;2023-10-31T01:22:47;15.10;93.40
14142;DHT22;7151;52.246;4.820;2023-10-31T01:25:13;15.10;93.40
14142;DHT22;7151;52.246;4.820;2023-10-31T01:27:39;15.10;93.40
14142;DHT22;7151;52.246;4.820;2023-10-31T01:30:04;15.10;93.40
14142;DHT22;7151;52.246;4.820;2023-10-31T01:32:30;15.00;93.40
14142;DHT22;7151;52.246;4.820;2023-10-31T01:34:56;15.00;93.50
14142;DHT22;7151;52.246;4.820;2023-10-31T01:37:22;15.10;93.50
14142;DHT22;7151;52.246;4.820;2023-10-31T01:39:47;15.10;93.50
14142;DHT22;7151;52.246;4.820;2023-10-31T01:42:14;15.10;93.50
14142;DHT22;7151;52.246;4.820;2023-10-31T01:44:40;15.10;93.50
14142;DHT22;7151;52.246;4.820;2023-10-31T01:47:06;15.10;93.50
14142;DHT22;7151;52.246;4.820;2023-10-31T01:49:31;15.10;93.50
14142;DHT22;7151;52.246;4.820;2023-10-31T01:51:59;15.10;93.60
14142;DHT22;7151;52.246;4.820;2023-10-31T01:54:25;15.10;93.60
14142;DHT22;7151;52.246;4.820;2023-10-31T01:56:51;15.10;93.60
14142;DHT22;7151;52.246;4.820;2023-10-31T01:59:21;15.10;93.60
14142;DHT22;7151;52.246;4.820;2023-10-31T02:01:48;15.10;93.60
14142;DHT22;7151;52.246;4.820;2023-10-31T02:04:14;15.10;93.60
14142;DHT22;7151;52.246;4.820;2023-10-31T02:06:39;15.10;93.60
14142;DHT22;7151;52.246;4.820;2023-10-31T02:09:06;15.10;93.60
14142;DHT22;7151;52.246;4.820;2023-10-31T02:11:32;15.10;93.60
14142;DHT22;7151;52.246;4.820;2023-10-31T02:13:58;15.10;93.60
14142;DHT22;7151;52.246;4.820;2023-10-31T02:16:23;15.10;93.60
14142;DHT22;7151;52.246;4.820;2023-10-31T02:18:50;15.10;93.60
14142;DHT22;7151;52.246;4.820;2023-10-31T02:21:17;15.10;93.60
14142;DHT22;7151;52.246;4.820;2023-10-31T02:23:58;15.10;93.60
14142;DHT22;7151;52.246;4.820;2023-10-31T02:26:31;15.10;93.60
14142;DHT22;7151;52.246;4.820;2023-10-31T02:28:56;15.10;93.60
14142;DHT22;7151;52.246;4.820;2023-10-31T02:31:22;15.10;93.60
14142;DHT22;7151;52.246;4.820;2023-10-31T02:33:48;15.10;93.60
14142;DHT22;7151;52.246;4.820;2023-10-31T02:36:13;15.10;93.50
14142;DHT22;7151;52.246;4.820;2023-10-31T02:38:39;15.10;93.50
14142;DHT22;7151;52.246;4.820;2023-10-31T02:41:05;15.10;93.50
14142;DHT22;7151;52.246;4.820;2023-10-31T02:43:31;15.10;93.50
14142;DHT22;7151;52.246;4.820;2023-10-31T02:45:56;15.10;93.50
14142;DHT22;7151;52.246;4.820;2023-10-31T02:48:22;15.10;93.50
14142;DHT22;7151;52.246;4.820;2023-10-31T02:50:49;15.10;93.50
14142;DHT22;7151;52.246;4.820;2023-10-31T02:53:14;15.10;93.50
14142;DHT22;7151;52.246;4.820;2023-10-31T02:55:40;15.10;93.50
14142;DHT22;7151;52.246;4.820;2023-10-31T02:58:05;15.00;93.50
14142;DHT22;7151;52.246;4.820;2023-10-31T03:00:31;15.10;93.50
14142;DHT22;7151;52.246;4.820;2023-10-31T03:02:56;15.00;93.50
14142;DHT22;7151;52.246;4.820;2023-10-31T03:05:22;15.00;93.50
14142;DHT22;7151;52.246;4.820;2023-10-31T03:07:47;15.10;93.50
14142;DHT22;7151;52.246;4.820;2023-10-31T03:10:13;15.00;93.50
14142;DHT22;7151;52.246;4.820;2023-10-31T03:12:39;15.00;93.50
14142;DHT22;7151;52.246;4.820;2023-10-31T03:15:05;15.00;93.50
14142;DHT22;7151;52.246;4.820;2023-10-31T03:17:30;15.00;93.50
14142;DHT22;7151;52.246;4.820;2023-10-31T03:19:56;15.00;93.50
14142;DHT22;7151;52.246;4.820;2023-10-31T03:22:21;15.00;93.50
14142;DHT22;7151;52.246;4.820;2023-10-31T03:24:47;15.00;93.50
14142;DHT22;7151;52.246;4.820;2023-10-31T03:27:12;15.00;93.60
14142;DHT22;7151;52.246;4.820;2023-10-31T03:29:38;15.00;93.60
14142;DHT22;7151;52.246;4.820;2023-10-31T03:32:04;15.00;93.60
14142;DHT22;7151;52.246;4.820;2023-10-31T03:34:30;15.00;93.70
14142;DHT22;7151;52.246;4.820;2023-10-31T03:36:56;15.00;94.00
14142;DHT22;7151;52.246;4.820;2023-10-31T03:39:21;15.00;93.70
14142;DHT22;7151;52.246;4.820;2023-10-31T03:41:47;15.00;93.80
14142;DHT22;7151;52.246;4.820;2023-10-31T03:44:13;15.00;93.80
14142;DHT22;7151;52.246;4.820;2023-10-31T03:46:38;15.00;93.80
14142;DHT22;7151;52.246;4.820;2023-10-31T03:49:04;15.00;93.80
14142;DHT22;7151;52.246;4.820;2023-10-31T03:51:33;15.00;93.80
14142;DHT22;7151;52.246;4.820;2023-10-31T03:53:58;15.10;93.80
14142;DHT22;7151;52.246;4.820;2023-10-31T03:56:24;15.00;93.80
14142;DHT22;7151;52.246;4.820;2023-10-31T03:58:49;15.10;93.80
14142;DHT22;7151;52.246;4.820;2023-10-31T04:01:15;15.00;93.80
14142;DHT22;7151;52.246;4.820;2023-10-31T04:03:40;15.00;93.80
14142;DHT22;7151;52.246;4.820;2023-10-31T04:06:06;15.00;93.80
14142;DHT22;7151;52.246;4.820;2023-10-31T04:08:31;15.00;93.80
14142;DHT22;7151;52.246;4.820;2023-10-31T04:10:57;15.00;93.80
14142;DHT22;7151;52.246;4.820;2023-10-31T04:13:23;15.00;93.80
14142;DHT22;7151;52.246;4.820;2023-10-31T04:15:48;15.00;93.80
14142;DHT22;7151;52.246;4.820;2023-10-31T04:18:14;15.00;93.80
14142;DHT22;7151;52.246;4.820;2023-10-31T04:20:39;15.00;93.70
14142;DHT22;7151;52.246;4.820;2023-10-31T04:23:05;15.00;93.70
14142;DHT22;7151;52.246;4.820;2023-10-31T04:25:31;15.00;93.70
14142;DHT22;7151;52.246;4.820;2023-10-31T04:27:57;15.00;93.70
14142;DHT22;7151;52.246;4.820;2023-10-31T04:30:23;15.00;93.80
14142;DHT22;7151;52.246;4.820;2023-10-31T04:32:49;15.00;93.80
14142;DHT22;7151;52.246;4.820;2023-10-31T04:35:14;15.00;94.10
14142;DHT22;7151;52.246;4.820;2023-10-31T04:37:40;15.00;93.80
14142;DHT22;7151;52.246;4.820;2023-10-31T04:40:06;14.90;93.70
14142;DHT22;7151;52.246;4.820;2023-10-31T04:42:34;15.00;93.80
14142;DHT22;7151;52.246;4.820;2023-10-31T04:45:00;15.00;93.80
14142;DHT22;7151;52.246;4.820;2023-10-31T04:47:25;15.00;93.70
14142;DHT22;7151;52.246;4.820;2023-10-31T04:49:51;15.00;93.70
14142;DHT22;7151;52.246;4.820;2023-10-31T04:52:17;15.00;93.80
14142;DHT22;7151;52.246;4.820;2023-10-31T04:54:43;14.90;93.70
14142;DHT22;7151;52.246;4.820;2023-10-31T04:57:08;14.90;93.70
14142;DHT22;7151;52.246;4.820;2023-10-31T04:59:34;14.90;93.70
14142;DHT22;7151;52.246;4.820;2023-10-31T05:01:59;14.90;93.70
14142;DHT22;7151;52.246;4.820;2023-10-31T05:04:25;14.90;93.70
14142;DHT22;7151;52.246;4.820;2023-10-31T05:06:51;14.90;93.70
14142;DHT22;7151;52.246;4.820;2023-10-31T05:09:17;14.90;93.70
14142;DHT22;7151;52.246;4.820;2023-10-31T05:11:43;14.90;93.60
14142;DHT22;7151;52.246;4.820;2023-10-31T05:14:09;14.90;93.70
14142;DHT22;7151;52.246;4.820;2023-10-31T05:16:44;14.90;93.60
14142;DHT22;7151;52.246;4.820;2023-10-31T05:19:10;14.90;93.60
14142;DHT22;7151;52.246;4.820;2023-10-31T05:21:36;14.80;93.60
14142;DHT22;7151;52.246;4.820;2023-10-31T05:24:02;14.80;93.60
14142;DHT22;7151;52.246;4.820;2023-10-31T05:26:27;14.80;93.60
14142;DHT22;7151;52.246;4.820;2023-10-31T05:28:55;14.80;93.60
14142;DHT22;7151;52.246;4.820;2023-10-31T05:31:21;14.70;93.60
14142;DHT22;7151;52.246;4.820;2023-10-31T05:33:47;14.80;93.60
14142;DHT22;7151;52.246;4.820;2023-10-31T05:36:19;14.80;93.70
14142;DHT22;7151;52.246;4.820;2023-10-31T05:38:47;14.80;93.70
14142;DHT22;7151;52.246;4.820;2023-10-31T05:41:13;14.80;93.70
14142;DHT22;7151;52.246;4.820;2023-10-31T05:43:39;14.80;93.70
14142;DHT22;7151;52.246;4.820;2023-10-31T05:46:05;14.80;93.70
14142;DHT22;7151;52.246;4.820;2023-10-31T05:48:31;14.80;93.70
14142;DHT22;7151;52.246;4.820;2023-10-31T05:50:57;14.80;93.70
14142;DHT22;7151;52.246;4.820;2023-10-31T05:53:22;14.80;93.70
14142;DHT22;7151;52.246;4.820;2023-10-31T05:55:48;14.80;93.70
14142;DHT22;7151;52.246;4.820;2023-10-31T05:58:14;14.80;93.70
14142;DHT22;7151;52.246;4.820;2023-10-31T06:00:40;14.80;93.70
14142;DHT22;7151;52.246;4.820;2023-10-31T06:03:05;14.70;93.70
14142;DHT22;7151;52.246;4.820;2023-10-31T06:05:31;14.70;93.70
14142;DHT22;7151;52.246;4.820;2023-10-31T06:07:56;14.70;93.70
14142;DHT22;7151;52.246;4.820;2023-10-31T06:10:22;14.70;93.70
14142;DHT22;7151;52.246;4.820;2023-10-31T06:12:48;14.70;93.70
14142;DHT22;7151;52.246;4.820;2023-10-31T06:15:13;14.70;93.60
14142;DHT22;7151;52.246;4.820;2023-10-31T06:17:39;14.70;93.70
14142;DHT22;7151;52.246;4.820;2023-10-31T06:20:07;14.70;93.70
14142;DHT22;7151;52.246;4.820;2023-10-31T06:22:33;14.70;93.70
14142;DHT22;7151;52.246;4.820;2023-10-31T06:24:59;14.70;93.60
14142;DHT22;7151;52.246;4.820;2023-10-31T06:27:24;14.70;93.60
14142;DHT22;7151;52.246;4.820;2023-10-31T06:29:50;14.70;93.60
14142;DHT22;7151;52.246;4.820;2023-10-31T06:32:15;14.70;93.60
14142;DHT22;7151;52.246;4.820;2023-10-31T06:34:41;14.70;93.60
14142;DHT22;7151;52.246;4.820;2023-10-31T06:37:06;14.60;93.60
14142;DHT22;7151;52.246;4.820;2023-10-31T06:39:32;14.60;93.60
14142;DHT22;7151;52.246;4.820;2023-10-31T06:41:58;14.60;93.60
14142;DHT22;7151;52.246;4.820;2023-10-31T06:44:23;14.60;93.60
14142;DHT22;7151;52.246;4.820;2023-10-31T06:46:49;14.60;93.60
14142;DHT22;7151;52.246;4.820;2023-10-31T06:49:15;14.60;93.60
14142;DHT22;7151;52.246;4.820;2023-10-31T06:51:41;14.60;93.70
14142;DHT22;7151;52.246;4.820;2023-10-31T06:54:06;14.60;93.70
14142;DHT22;7151;52.246;4.820;2023-10-31T06:56:32;14.60;93.70
14142;DHT22;7151;52.246;4.820;2023-10-31T06:58:58;14.70;93.70
14142;DHT22;7151;52.246;4.820;2023-10-31T07:01:24;14.70;93.70
14142;DHT22;7151;52.246;4.820;2023-10-31T07:03:50;14.60;93.70
14142;DHT22;7151;52.246;4.820;2023-10-31T07:06:15;14.60;93.70
14142;DHT22;7151;52.246;4.820;2023-10-31T07:08:41;14.60;93.80
14142;DHT22;7151;52.246;4.820;2023-10-31T07:11:06;14.60;93.80
14142;DHT22;7151;52.246;4.820;2023-10-31T07:13:32;14.60;93.80
14142;DHT22;7151;52.246;4.820;2023-10-31T07:15:57;14.70;93.80
14142;DHT22;7151;52.246;4.820;2023-10-31T07:18:23;14.70;93.80
14142;DHT22;7151;52.246;4.820;2023-10-31T07:20:48;14.70;93.80
14142;DHT22;7151;52.246;4.820;2023-10-31T07:23:14;14.70;93.80
14142;DHT22;7151;52.246;4.820;2023-10-31T07:25:40;14.70;93.80
14142;DHT22;7151;52.246;4.820;2023-10-31T07:28:06;14.70;93.90
14142;DHT22;7151;52.246;4.820;2023-10-31T07:30:31;14.70;93.90
14142;DHT22;7151;52.246;4.820;2023-10-31T07:32:57;14.70;93.90
14142;DHT22;7151;52.246;4.820;2023-10-31T07:35:22;14.80;94.00
14142;DHT22;7151;52.246;4.820;2023-10-31T07:37:48;14.70;94.00
14142;DHT22;7151;52.246;4.820;2023-10-31T07:40:14;14.70;94.00
14142;DHT22;7151;52.246;4.820;2023-10-31T07:42:39;14.70;94.00
14142;DHT22;7151;52.246;4.820;2023-10-31T07:45:05;14.70;94.00
14142;DHT22;7151;52.246;4.820;2023-10-31T07:47:31;14.70;94.00
14142;DHT22;7151;52.246;4.820;2023-10-31T07:49:57;14.80;94.00
14142;DHT22;7151;52.246;4.820;2023-10-31T07:52:22;14.60;94.00
14142;DHT22;7151;52.246;4.820;2023-10-31T07:54:48;14.80;94.10
14142;DHT22;7151;52.246;4.820;2023-10-31T07:57:13;14.80;94.10
14142;DHT22;7151;52.246;4.820;2023-10-31T07:59:39;14.80;94.20
14142;DHT22;7151;52.246;4.820;2023-10-31T08:02:05;14.80;94.50
14142;DHT22;7151;52.246;4.820;2023-10-31T08:04:31;14.90;94.70
14142;DHT22;7151;52.246;4.820;2023-10-31T08:06:56;15.00;94.70
14142;DHT22;7151;52.246;4.820;2023-10-31T08:09:22;15.00;94.50
14142;DHT22;7151;52.246;4.820;2023-10-31T08:11:48;15.10;94.40
14142;DHT22;7151;52.246;4.820;2023-10-31T08:14:13;15.10;94.30
14142;DHT22;7151;52.246;4.820;2023-10-31T08:16:41;15.10;94.30
14142;DHT22;7151;52.246;4.820;2023-10-31T08:19:07;15.10;94.20
14142;DHT22;7151;52.246;4.820;2023-10-31T08:21:32;15.10;94.20
14142;DHT22;7151;52.246;4.820;2023-10-31T08:24:02;15.10;94.20
14142;DHT22;7151;52.246;4.820;2023-10-31T08:26:28;15.10;94.20
14142;DHT22;7151;52.246;4.820;2023-10-31T08:28:53;15.10;94.20
14142;DHT22;7151;52.246;4.820;2023-10-31T08:31:19;15.10;94.50
14142;DHT22;7151;52.246;4.820;2023-10-31T08:33:45;15.10;94.20
14142;DHT22;7151;52.246;4.820;2023-10-31T08:36:11;15.10;94.20
14142;DHT22;7151;52.246;4.820;2023-10-31T08:38:36;15.10;94.30
14142;DHT22;7151;52.246;4.820;2023-10-31T08:41:02;15.10;94.40
14142;DHT22;7151;52.246;4.820;2023-10-31T08:43:27;15.10;94.40
14142;DHT22;7151;52.246;4.820;2023-10-31T08:45:53;15.10;94.50
14142;DHT22;7151;52.246;4.820;2023-10-31T08:48:19;15.20;94.80
14142;DHT22;7151;52.246;4.820;2023-10-31T08:50:44;15.20;95.00
14142;DHT22;7151;52.246;4.820;2023-10-31T08:53:10;15.30;95.00
14142;DHT22;7151;52.246;4.820;2023-10-31T08:55:36;15.40;94.90
14142;DHT22;7151;52.246;4.820;2023-10-31T08:58:01;15.40;94.80
14142;DHT22;7151;52.246;4.820;2023-10-31T09:00:27;15.50;94.70
14142;DHT22;7151;52.246;4.820;2023-10-31T09:02:53;15.50;94.70
14142;DHT22;7151;52.246;4.820;2023-10-31T09:05:19;15.50;94.60
14142;DHT22;7151;52.246;4.820;2023-10-31T09:07:45;15.60;94.60
14142;DHT22;7151;52.246;4.820;2023-10-31T09:10:11;15.50;94.60
14142;DHT22;7151;52.246;4.820;2023-10-31T09:12:37;15.50;94.60
14142;DHT22;7151;52.246;4.820;2023-10-31T09:15:03;15.50;94.60
14142;DHT22;7151;52.246;4.820;2023-10-31T09:17:29;15.60;94.60
14142;DHT22;7151;52.246;4.820;2023-10-31T09:19:55;15.60;94.60
14142;DHT22;7151;52.246;4.820;2023-10-31T09:22:21;15.50;94.60
14142;DHT22;7151;52.246;4.820;2023-10-31T09:24:46;15.50;94.60
14142;DHT22;7151;52.246;4.820;2023-10-31T09:27:12;15.50;94.60
14142;DHT22;7151;52.246;4.820;2023-10-31T09:29:37;15.50;94.60
14142;DHT22;7151;52.246;4.820;2023-10-31T09:32:04;15.50;94.60
14142;DHT22;7151;52.246;4.820;2023-10-31T09:34:31;15.50;94.70
14142;DHT22;7151;52.246;4.820;2023-10-31T09:36:57;15.50;94.80
14142;DHT22;7151;52.246;4.820;2023-10-31T09:39:23;15.60;94.80
14142;DHT22;7151;52.246;4.820;2023-10-31T09:41:49;15.60;94.80
14142;DHT22;7151;52.246;4.820;2023-10-31T09:44:14;15.70;94.90
14142;DHT22;7151;52.246;4.820;2023-10-31T09:46:40;15.70;94.90
14142;DHT22;7151;52.246;4.820;2023-10-31T09:49:07;15.70;94.90
14142;DHT22;7151;52.246;4.820;2023-10-31T09:51:33;15.80;95.00
14142;DHT22;7151;52.246;4.820;2023-10-31T09:53:59;15.80;95.10
14142;DHT22;7151;52.246;4.820;2023-10-31T09:56:27;15.90;95.10
14142;DHT22;7151;52.246;4.820;2023-10-31T09:59:03;15.90;95.10
14142;DHT22;7151;52.246;4.820;2023-10-31T10:01:29;15.90;95.10
14142;DHT22;7151;52.246;4.820;2023-10-31T10:03:55;16.10;95.20
14142;DHT22;7151;52.246;4.820;2023-10-31T10:06:21;16.00;95.10
14142;DHT22;7151;52.246;4.820;2023-10-31T10:08:49;16.00;95.20
14142;DHT22;7151;52.246;4.820;2023-10-31T10:11:15;16.10;95.20
14142;DHT22;7151;52.246;4.820;2023-10-31T10:13:40;16.20;95.30
14142;DHT22;7151;52.246;4.820;2023-10-31T10:16:06;16.20;95.40
14142;DHT22;7151;52.246;4.820;2023-10-31T10:18:34;16.30;95.40
14142;DHT22;7151;52.246;4.820;2023-10-31T10:21:02;16.30;95.30
14142;DHT22;7151;52.246;4.820;2023-10-31T10:23:29;16.40;95.10
14142;DHT22;7151;52.246;4.820;2023-10-31T10:25:56;16.40;95.00
14142;DHT22;7151;52.246;4.820;2023-10-31T10:28:21;16.40;94.90
14142;DHT22;7151;52.246;4.820;2023-10-31T10:30:48;16.40;94.80
14142;DHT22;7151;52.246;4.820;2023-10-31T10:33:15;16.40;94.80
14142;DHT22;7151;52.246;4.820;2023-10-31T10:35:41;16.40;94.80
14142;DHT22;7151;52.246;4.820;2023-10-31T10:38:15;16.40;94.70
14142;DHT22;7151;52.246;4.820;2023-10-31T10:40:43;16.30;94.70
14142;DHT22;7151;52.246;4.820;2023-10-31T10:43:24;16.30;94.70
14142;DHT22;7151;52.246;4.820;2023-10-31T10:45:57;16.40;94.80
14142;DHT22;7151;52.246;4.820;2023-10-31T10:48:26;16.30;94.80
14142;DHT22;7151;52.246;4.820;2023-10-31T10:51:05;16.30;94.90
14142;DHT22;7151;52.246;4.820;2023-10-31T10:53:42;16.40;95.20
14142;DHT22;7151;52.246;4.820;2023-10-31T10:56:21;16.50;95.40
14142;DHT22;7151;52.246;4.820;2023-10-31T11:01:23;16.60;95.30
14142;DHT22;7151;52.246;4.820;2023-10-31T11:03:51;16.70;95.20
14142;DHT22;7151;52.246;4.820;2023-10-31T11:06:18;16.80;95.10
14142;DHT22;7151;52.246;4.820;2023-10-31T11:08:44;16.80;95.00
14142;DHT22;7151;52.246;4.820;2023-10-31T11:11:10;16.80;94.90
14142;DHT22;7151;52.246;4.820;2023-10-31T11:13:36;16.90;94.90
14142;DHT22;7151;52.246;4.820;2023-10-31T11:16:09;16.90;94.70
14142;DHT22;7151;52.246;4.820;2023-10-31T11:18:36;16.90;94.70
14142;DHT22;7151;52.246;4.820;2023-10-31T11:21:02;16.90;94.60
14142;DHT22;7151;52.246;4.820;2023-10-31T11:23:28;16.80;94.50
14142;DHT22;7151;52.246;4.820;2023-10-31T11:25:55;16.80;94.50
14142;DHT22;7151;52.246;4.820;2023-10-31T11:28:24;16.80;94.40
14142;DHT22;7151;52.246;4.820;2023-10-31T11:30:51;16.80;94.40
14142;DHT22;7151;52.246;4.820;2023-10-31T11:33:24;16.80;94.40
14142;DHT22;7151;52.246;4.820;2023-10-31T11:35:50;16.80;94.40
14142;DHT22;7151;52.246;4.820;2023-10-31T11:38:16;16.80;94.40
14142;DHT22;7151;52.246;4.820;2023-10-31T11:43:13;16.80;94.40
14142;DHT22;7151;52.246;4.820;2023-10-31T11:45:43;16.80;94.40
14142;DHT22;7151;52.246;4.820;2023-10-31T11:48:13;16.80;94.40
14142;DHT22;7151;52.246;4.820;2023-10-31T11:50:39;16.80;94.30
14142;DHT22;7151;52.246;4.820;2023-10-31T11:55:42;16.90;94.10
14142;DHT22;7151;52.246;4.820;2023-10-31T11:58:13;16.80;94.10
14142;DHT22;7151;52.246;4.820;2023-10-31T12:00:38;16.80;94.10
14142;DHT22;7151;52.246;4.820;2023-10-31T12:03:04;16.80;94.10
14142;DHT22;7151;52.246;4.820;2023-10-31T12:05:29;16.80;94.10
14142;DHT22;7151;52.246;4.820;2023-10-31T12:07:55;16.80;94.00
14142;DHT22;7151;52.246;4.820;2023-10-31T12:10:28;16.80;94.00
14142;DHT22;7151;52.246;4.820;2023-10-31T12:12:57;16.70;94.00
14142;DHT22;7151;52.246;4.820;2023-10-31T12:15:23;16.70;94.20
14142;DHT22;7151;52.246;4.820;2023-10-31T12:17:49;16.80;94.30
14142;DHT22;7151;52.246;4.820;2023-10-31T12:20:15;16.80;94.20
14142;DHT22;7151;52.246;4.820;2023-10-31T12:22:41;16.70;94.10
14142;DHT22;7151;52.246;4.820;2023-10-31T12:25:08;16.80;94.00
14142;DHT22;7151;52.246;4.820;2023-10-31T12:27:48;16.80;94.00
14142;DHT22;7151;52.246;4.820;2023-10-31T12:30:19;16.70;93.90
14142;DHT22;7151;52.246;4.820;2023-10-31T12:32:45;16.70;93.90
14142;DHT22;7151;52.246;4.820;2023-10-31T12:35:22;16.70;93.90
14142;DHT22;7151;52.246;4.820;2023-10-31T12:37:48;16.70;93.90
14142;DHT22;7151;52.246;4.820;2023-10-31T12:40:17;16.70;93.90
14142;DHT22;7151;52.246;4.820;2023-10-31T12:42:44;16.70;94.00
14142;DHT22;7151;52.246;4.820;2023-10-31T12:45:11;16.60;94.00
14142;DHT22;7151;52.246;4.820;2023-10-31T12:47:37;16.60;93.90
14142;DHT22;7151;52.246;4.820;2023-10-31T12:52:51;16.60;94.10
14142;DHT22;7151;52.246;4.820;2023-10-31T12:55:21;16.60;94.10
14142;DHT22;7151;52.246;4.820;2023-10-31T12:57:48;16.60;94.00
14142;DHT22;7151;52.246;4.820;2023-10-31T13:00:15;16.70;94.00
14142;DHT22;7151;52.246;4.820;2023-10-31T13:02:44;16.50;94.00
14142;DHT22;7151;52.246;4.820;2023-10-31T13:05:13;16.50;93.80
14142;DHT22;7151;52.246;4.820;2023-10-31T13:07:53;16.50;94.00
14142;DHT22;7151;52.246;4.820;2023-10-31T13:10:19;16.50;94.10
14142;DHT22;7151;52.246;4.820;2023-10-31T13:12:46;16.50;94.10
14142;DHT22;7151;52.246;4.820;2023-10-31T13:15:18;16.40;94.10
14142;DHT22;7151;52.246;4.820;2023-10-31T13:17:44;16.40;94.20
14142;DHT22;7151;52.246;4.820;2023-10-31T13:20:11;16.50;94.20
14142;DHT22;7151;52.246;4.820;2023-10-31T13:22:37;16.40;94.20
14142;DHT22;7151;52.246;4.820;2023-10-31T13:25:07;16.40;94.20
14142;DHT22;7151;52.246;4.820;2023-10-31T13:27:35;16.40;94.20
14142;DHT22;7151;52.246;4.820;2023-10-31T13:30:04;16.40;94.20
14142;DHT22;7151;52.246;4.820;2023-10-31T13:32:30;16.40;94.10
14142;DHT22;7151;52.246;4.820;2023-10-31T13:34:56;16.40;94.10
14142;DHT22;7151;52.246;4.820;2023-10-31T13:37:22;16.40;94.10
14142;DHT22;7151;52.246;4.820;2023-10-31T13:39:47;16.40;94.10
14142;DHT22;7151;52.246;4.820;2023-10-31T13:42:13;16.40;94.10
14142;DHT22;7151;52.246;4.820;2023-10-31T13:44:42;16.40;94.10
14142;DHT22;7151;52.246;4.820;2023-10-31T13:47:08;16.40;94.10
14142;DHT22;7151;52.246;4.820;2023-10-31T13:49:35;16.40;94.00
14142;DHT22;7151;52.246;4.820;2023-10-31T13:52:00;16.40;94.00
14142;DHT22;7151;52.246;4.820;2023-10-31T13:54:26;16.40;94.00
14142;DHT22;7151;52.246;4.820;2023-10-31T13:56:52;16.40;93.90
14142;DHT22;7151;52.246;4.820;2023-10-31T13:59:17;16.30;93.90
14142;DHT22;7151;52.246;4.820;2023-10-31T14:01:44;16.30;93.90
14142;DHT22;7151;52.246;4.820;2023-10-31T14:04:11;16.30;93.90
14142;DHT22;7151;52.246;4.820;2023-10-31T14:06:39;16.30;93.90
14142;DHT22;7151;52.246;4.820;2023-10-31T14:09:05;16.30;93.90
14142;DHT22;7151;52.246;4.820;2023-10-31T14:11:32;16.30;93.90
14142;DHT22;7151;52.246;4.820;2023-10-31T14:13:58;16.30;94.00
14142;DHT22;7151;52.246;4.820;2023-10-31T14:16:28;16.30;94.20
14142;DHT22;7151;52.246;4.820;2023-10-31T14:18:55;16.40;94.40
14142;DHT22;7151;52.246;4.820;2023-10-31T14:21:20;16.40;94.40
14142;DHT22;7151;52.246;4.820;2023-10-31T14:23:46;16.50;94.30
14142;DHT22;7151;52.246;4.820;2023-10-31T14:26:22;16.60;94.20
14142;DHT22;7151;52.246;4.820;2023-10-31T14:28:49;16.60;94.00
14142;DHT22;7151;52.246;4.820;2023-10-31T14:31:15;16.60;93.90
14142;DHT22;7151;52.246;4.820;2023-10-31T14:33:40;16.50;93.80
14142;DHT22;7151;52.246;4.820;2023-10-31T14:36:07;16.50;93.80
14142;DHT22;7151;52.246;4.820;2023-10-31T14:38:34;16.50;93.80
14142;DHT22;7151;52.246;4.820;2023-10-31T14:40:59;16.50;93.80
14142;DHT22;7151;52.246;4.820;2023-10-31T14:43:25;16.50;93.80
14142;DHT22;7151;52.246;4.820;2023-10-31T14:45:50;16.40;93.80
14142;DHT22;7151;52.246;4.820;2023-10-31T14:48:16;16.40;93.80
14142;DHT22;7151;52.246;4.820;2023-10-31T14:50:41;16.30;93.70
14142;DHT22;7151;52.246;4.820;2023-10-31T14:53:07;16.30;93.70
14142;DHT22;7151;52.246;4.820;2023-10-31T14:55:34;16.30;93.80
14142;DHT22;7151;52.246;4.820;2023-10-31T14:58:00;16.30;93.80
14142;DHT22;7151;52.246;4.820;2023-10-31T15:00:25;16.30;93.80
14142;DHT22;7151;52.246;4.820;2023-10-31T15:02:51;16.20;93.70
14142;DHT22;7151;52.246;4.820;2023-10-31T15:05:16;16.20;93.70
14142;DHT22;7151;52.246;4.820;2023-10-31T15:07:42;16.20;93.80
14142;DHT22;7151;52.246;4.820;2023-10-31T15:10:08;16.20;93.80
14142;DHT22;7151;52.246;4.820;2023-10-31T15:12:33;16.10;94.10
14142;DHT22;7151;52.246;4.820;2023-10-31T15:14:59;16.10;93.80
14142;DHT22;7151;52.246;4.820;2023-10-31T15:17:24;16.10;94.10
14142;DHT22;7151;52.246;4.820;2023-10-31T15:19:50;16.10;93.80
14142;DHT22;7151;52.246;4.820;2023-10-31T15:22:16;16.10;93.80
14142;DHT22;7151;52.246;4.820;2023-10-31T15:24:41;16.10;93.80
14142;DHT22;7151;52.246;4.820;2023-10-31T15:27:07;16.10;93.80
14142;DHT22;7151;52.246;4.820;2023-10-31T15:29:33;16.00;93.70
14142;DHT22;7151;52.246;4.820;2023-10-31T15:31:58;16.00;93.70
14142;DHT22;7151;52.246;4.820;2023-10-31T15:34:24;16.00;93.70
14142;DHT22;7151;52.246;4.820;2023-10-31T15:36:50;16.00;93.70
14142;DHT22;7151;52.246;4.820;2023-10-31T15:39:15;16.00;93.90
14142;DHT22;7151;52.246;4.820;2023-10-31T15:41:42;16.00;94.00
14142;DHT22;7151;52.246;4.820;2023-10-31T15:44:07;16.00;94.00
14142;DHT22;7151;52.246;4.820;2023-10-31T15:46:33;16.10;94.00
14142;DHT22;7151;52.246;4.820;2023-10-31T15:49:01;16.10;93.90